Time;durP1;ratioP1;P1;durP2;ratioP2;P2;SDS_P1;SDS_P2;PMS_P1;PMS_P2;Temp;Humidity;BMP_temperature;BMP_pressure;BME280_temperature;BME280_humidity;BME280_pressure;Samples;Min_cycle;Max_cycle;Signal;HPM_P1;HPM_P2
2022/08/06 00:00:48;;;;;;;21.52;14.85;;;23.30;97.40;;;;;;5015425;28;20063;-74
2022/08/06 00:03:13;;;;;;;27.92;16.23;;;23.20;97.90;;;;;;5008199;28;20432;-75
2022/08/06 00:05:41;;;;;;;24.63;15.55;;;22.90;98.70;;;;;;5009899;28;20052;-74
2022/08/06 00:08:07;;;;;;;25.13;14.80;;;22.90;98.90;;;;;;5014631;28;20093;-77
2022/08/06 00:10:33;;;;;;;25.90;14.98;;;22.80;99.50;;;;;;5015010;28;20069;-77
2022/08/06 00:13:00;;;;;;;25.40;13.38;;;;;;;;;;5004127;28;20100;-75
2022/08/06 00:15:27;;;;;;;17.85;11.93;;;22.50;99.90;;;;;;5014014;28;20054;-75
2022/08/06 00:17:52;;;;;;;17.17;11.20;;;22.40;99.90;;;;;;5014290;28;20032;-77
2022/08/06 00:20:18;;;;;;;22.25;9.90;;;22.30;99.90;;;;;;5014696;28;20018;-76
2022/08/06 00:22:44;;;;;;;17.08;10.27;;;22.20;99.90;;;;;;5014745;28;20049;-75
2022/08/06 00:25:10;;;;;;;19.60;9.68;;;21.90;99.90;;;;;;5010889;28;20380;-71
2022/08/06 00:27:37;;;;;;;18.67;10.25;;;22.00;99.90;;;;;;5014247;28;20357;-75
2022/08/06 00:30:05;;;;;;;22.63;10.02;;;22.10;99.90;;;;;;5014606;28;20440;-76
2022/08/06 00:32:32;;;;;;;18.42;10.00;;;22.10;99.90;;;;;;5014815;28;20034;-75
2022/08/06 00:34:57;;;;;;;18.38;9.48;;;22.00;99.90;;;;;;5014030;28;20073;-76
2022/08/06 00:37:23;;;;;;;18.73;9.20;;;21.90;99.90;;;;;;5014166;28;20030;-74
2022/08/06 00:39:49;;;;;;;16.48;9.10;;;22.00;99.90;;;;;;5013419;28;20050;-74
2022/08/06 00:42:15;;;;;;;17.88;9.02;;;22.00;99.90;;;;;;5012553;28;20034;-75
2022/08/06 00:44:41;;;;;;;19.15;9.55;;;22.00;99.90;;;;;;5012402;28;20130;-74
2022/08/06 00:47:07;;;;;;;15.57;8.70;;;22.00;99.90;;;;;;5012015;28;20091;-72
2022/08/06 00:49:33;;;;;;;19.50;10.05;;;21.80;99.50;;;;;;5009692;28;20643;-75
2022/08/06 00:51:58;;;;;;;14.80;8.57;;;21.90;99.60;;;;;;5010329;28;20034;-76
2022/08/06 00:54:24;;;;;;;15.43;9.15;;;21.80;99.50;;;;;;5014273;28;20022;-75
2022/08/06 00:56:50;;;;;;;13.93;8.07;;;21.80;99.60;;;;;;5012101;28;20052;-75
2022/08/06 00:59:16;;;;;;;12.30;8.07;;;21.80;99.40;;;;;;5012601;28;20645;-76
2022/08/06 01:01:42;;;;;;;13.70;7.97;;;21.70;98.80;;;;;;5001495;28;20030;-75
2022/08/06 01:04:07;;;;;;;12.52;7.70;;;21.60;99.00;;;;;;5003049;28;20041;-74
2022/08/06 01:06:34;;;;;;;13.95;7.32;;;;;;;;;;5011022;28;21829;-70
2022/08/06 01:08:59;;;;;;;17.15;7.95;;;21.60;99.00;;;;;;5011651;28;20029;-75
2022/08/06 01:11:25;;;;;;;13.80;7.57;;;21.70;99.00;;;;;;5005200;28;20573;-73
2022/08/06 01:13:51;;;;;;;13.40;8.07;;;21.60;98.80;;;;;;5005487;28;20061;-75
2022/08/06 01:16:22;;;;;;;12.18;7.32;;;21.70;98.90;;;;;;5011767;28;20457;-74
2022/08/06 01:19:23;;;;;;;12.68;8.13;;;21.60;99.10;;;;;;5015132;28;20073;-74
2022/08/06 01:22:25;;;;;;;13.13;8.18;;;21.60;99.00;;;;;;5008535;28;20053;-74
2022/08/06 01:25:32;;;;;;;13.05;8.10;;;21.60;99.90;;;;;;5023128;28;20514;-73
2022/08/06 01:28:12;;;;;;;20.83;8.82;;;;;;;;;;4952499;29;20125;-63
2022/08/06 01:30:47;;;;;;;18.05;10.23;;;21.30;99.90;;;;;;4952941;29;20035;-63
2022/08/06 01:33:17;;;;;;;17.00;8.02;;;;;;;;;;4952620;29;20047;-63
2022/08/06 01:35:53;;;;;;;12.40;8.80;;;21.20;99.90;;;;;;4950058;28;20031;-62
2022/08/06 01:38:40;;;;;;;16.83;10.15;;;21.20;99.90;;;;;;4956063;28;20039;-74
2022/08/06 01:41:11;;;;;;;18.13;9.80;;;21.10;99.90;;;;;;4951846;29;20159;-75
2022/08/06 01:43:38;;;;;;;17.98;10.85;;;21.20;99.90;;;;;;4952027;29;20077;-68
2022/08/06 01:46:06;;;;;;;11.93;9.48;;;;;;;;;;4957286;28;20055;-63
2022/08/06 01:48:36;;;;;;;17.45;10.30;;;21.00;99.90;;;;;;4961536;28;20039;-64
2022/08/06 01:51:04;;;;;;;16.95;9.77;;;21.00;99.90;;;;;;4952596;29;20045;-74
2022/08/06 01:53:34;;;;;;;16.40;9.95;;;21.00;99.90;;;;;;4952605;29;20520;-71
2022/08/06 01:56:02;;;;;;;14.65;9.77;;;21.00;99.90;;;;;;4952030;29;20075;-64
2022/08/06 01:58:40;;;;;;;16.33;10.48;;;21.20;99.90;;;;;;4952211;29;20031;-62
2022/08/06 02:01:10;;;;;;;16.00;9.98;;;21.30;99.90;;;;;;4952088;29;20035;-68
2022/08/06 02:03:44;;;;;;;17.10;9.82;;;21.30;99.90;;;;;;4955847;28;20572;-70
2022/08/06 02:06:14;;;;;;;23.85;12.32;;;21.40;99.90;;;;;;5012464;28;20024;-62
2022/08/06 02:08:41;;;;;;;17.33;11.27;;;21.40;99.90;;;;;;5012390;28;20014;-73
2022/08/06 02:11:09;;;;;;;18.17;10.73;;;21.50;99.90;;;;;;5012509;28;20109;-68
2022/08/06 02:13:36;;;;;;;17.48;9.77;;;21.50;99.90;;;;;;5012150;28;20391;-71
2022/08/06 02:16:04;;;;;;;17.33;10.30;;;21.50;99.90;;;;;;5012575;28;20528;-71
2022/08/06 02:18:37;;;;;;;15.20;10.77;;;21.50;99.90;;;;;;5012496;28;20030;-74
2022/08/06 02:21:12;;;;;;;;;;;21.50;99.90;;;;;;5013284;28;20022;-72
2022/08/06 02:23:39;;;;;;;16.15;9.98;;;21.40;99.90;;;;;;5012877;28;19910;-73
2022/08/06 02:26:05;;;;;;;18.83;9.82;;;21.40;99.90;;;;;;5012423;28;20021;-73
2022/08/06 02:28:33;;;;;;;15.90;9.70;;;21.40;99.90;;;;;;5012768;28;20080;-73
2022/08/06 02:31:01;;;;;;;18.83;10.38;;;21.40;99.90;;;;;;5012634;28;20034;-73
2022/08/06 02:33:27;;;;;;;18.50;10.85;;;21.30;99.90;;;;;;5012604;28;20399;-74
2022/08/06 02:36:39;;;;;;;18.35;11.38;;;21.40;99.90;;;;;;5012438;28;20022;-70
2022/08/06 02:39:08;;;;;;;16.02;9.70;;;;;;;;;;5013269;28;20034;-73
2022/08/06 02:41:45;;;;;;;19.85;11.15;;;21.90;99.90;;;;;;5012747;28;20508;-70
2022/08/06 02:44:28;;;;;;;21.33;11.52;;;21.20;99.90;;;;;;5009936;28;20050;-73
2022/08/06 02:47:12;;;;;;;17.23;10.13;;;21.20;99.90;;;;;;4999269;28;20034;-71
2022/08/06 02:49:44;;;;;;;21.17;10.77;;;21.30;99.90;;;;;;4977232;28;20177;-68
2022/08/06 02:52:26;;;;;;;15.43;10.20;;;21.20;99.90;;;;;;4989119;28;20035;-71
2022/08/06 02:55:09;;;;;;;16.67;11.38;;;21.10;99.90;;;;;;5010259;28;20037;-71
2022/08/06 02:57:50;;;;;;;27.50;11.43;;;21.00;99.90;;;;;;5009801;28;20416;-70
2022/08/06 03:00:16;;;;;;;21.08;13.65;;;20.90;99.90;;;;;;5009329;28;20038;-75
2022/08/06 03:02:45;;;;;;;23.90;12.77;;;20.90;99.90;;;;;;5012709;28;20033;-69
2022/08/06 03:05:17;;;;;;;24.73;12.73;;;20.90;99.90;;;;;;5014690;28;20439;-74
2022/08/06 03:07:46;;;;;;;19.70;12.13;;;21.00;99.90;;;;;;4998446;28;20045;-73
2022/08/06 03:10:13;;;;;;;24.17;12.00;;;21.00;99.90;;;;;;5004950;28;20026;-74
2022/08/06 03:12:40;;;;;;;18.67;11.52;;;21.00;99.90;;;;;;5004007;28;20062;-73
2022/08/06 03:15:08;;;;;;;21.80;11.23;;;21.00;99.90;;;;;;5007574;28;20092;-75
2022/08/06 03:17:35;;;;;;;20.65;13.73;;;21.00;99.90;;;;;;5012260;28;20065;-76
2022/08/06 03:20:04;;;;;;;19.88;13.48;;;20.80;99.90;;;;;;5011225;28;20026;-69
2022/08/06 03:22:32;;;;;;;26.00;13.93;;;20.80;99.90;;;;;;5012150;28;20014;-74
2022/08/06 03:24:59;;;;;;;24.90;13.27;;;20.70;99.90;;;;;;5011900;28;20080;-75
2022/08/06 03:27:25;;;;;;;20.17;13.23;;;20.70;99.90;;;;;;5012078;28;20028;-72
2022/08/06 03:29:53;;;;;;;20.40;13.02;;;20.80;99.90;;;;;;5010830;28;20032;-73
2022/08/06 03:32:20;;;;;;;22.10;13.60;;;20.80;99.90;;;;;;5009101;28;20029;-72
2022/08/06 03:34:47;;;;;;;27.13;13.50;;;20.80;99.90;;;;;;5012228;28;20029;-73
2022/08/06 03:37:17;;;;;;;19.77;13.73;;;20.80;99.90;;;;;;5010854;28;20034;-71
2022/08/06 03:39:45;;;;;;;19.83;14.07;;;20.90;99.90;;;;;;5002780;28;20017;-73
2022/08/06 03:42:10;;;;;;;25.05;12.32;;;20.80;99.90;;;;;;4999585;28;20030;-64
2022/08/06 03:44:36;;;;;;;22.15;13.80;;;21.00;99.90;;;;;;5010278;28;20064;-73
2022/08/06 03:47:11;;;;;;;19.42;12.95;;;21.40;99.90;;;;;;5001365;28;20451;-67
2022/08/06 03:49:41;;;;;;;17.40;12.18;;;21.60;99.90;;;;;;4998128;28;20033;-72
2022/08/06 03:52:10;;;;;;;20.02;12.02;;;22.10;99.90;;;;;;5011996;28;20099;-73
2022/08/06 03:54:42;;;;;;;20.23;13.02;;;22.70;99.90;;;;;;5011169;28;20018;-71
2022/08/06 03:57:19;;;;;;;25.88;13.80;;;22.90;99.90;;;;;;5012037;28;20472;-70
2022/08/06 03:59:51;;;;;;;21.55;14.18;;;24.00;98.30;;;;;;5013485;28;20041;-73
2022/08/06 04:02:18;;;;;;;;;;;24.00;98.50;;;;;;5004122;28;20100;-72
2022/08/06 04:04:45;;;;;;;20.00;13.20;;;;;;;;;;5015359;28;19948;-73
2022/08/06 04:07:13;;;;;;;26.95;13.07;;;;;;;;;;5015143;28;20092;-73
2022/08/06 04:09:39;;;;;;;25.25;13.27;;;24.70;92.20;;;;;;5006274;28;20040;-74
2022/08/06 04:12:06;;;;;;;17.58;12.05;;;24.70;91.30;;;;;;5002604;28;20052;-74
2022/08/06 04:14:34;;;;;;;18.58;12.43;;;25.40;89.70;;;;;;5015109;28;20025;-74
2022/08/06 04:17:02;;;;;;;19.58;13.25;;;;;;;;;;5015252;28;20041;-75
2022/08/06 04:19:33;;;;;;;31.45;12.93;;;25.80;86.00;;;;;;5014881;28;20030;-72
2022/08/06 04:21:59;;;;;;;18.98;12.25;;;25.80;86.60;;;;;;5014324;28;20034;-75
2022/08/06 04:24:25;;;;;;;21.25;11.65;;;;;;;;;;5014789;28;20018;-69
2022/08/06 04:26:53;;;;;;;18.67;12.45;;;27.40;80.90;;;;;;5015147;28;20068;-75
2022/08/06 04:29:20;;;;;;;20.52;11.32;;;;;;;;;;5014748;28;20028;-74
2022/08/06 04:31:51;;;;;;;24.50;13.00;;;28.40;97.80;;;;;;5018410;28;20067;-73
2022/08/06 04:34:19;;;;;;;17.95;12.57;;;;;;;;;;5010142;28;20034;-73
2022/08/06 04:36:48;;;;;;;24.50;12.45;;;29.00;73.40;;;;;;5008504;28;20029;-75
2022/08/06 04:39:15;;;;;;;19.50;12.43;;;;;;;;;;5014866;28;20373;-66
2022/08/06 04:41:41;;;;;;;17.30;11.07;;;29.00;94.30;;;;;;5010859;28;20034;-75
2022/08/06 04:44:07;;;;;;;19.00;11.80;;;29.60;72.70;;;;;;5014592;28;20069;-76
2022/08/06 04:46:34;;;;;;;23.40;11.45;;;29.70;72.80;;;;;;5013394;28;20030;-76
2022/08/06 04:49:00;;;;;;;17.13;11.07;;;29.80;83.70;;;;;;5005269;28;20026;-76
2022/08/06 04:51:26;;;;;;;18.75;11.35;;;29.50;83.70;;;;;;5013592;28;20030;-76
2022/08/06 04:53:52;;;;;;;18.98;11.23;;;29.50;93.70;;;;;;5008865;28;20036;-76
2022/08/06 04:56:17;;;;;;;23.55;11.02;;;30.70;70.00;;;;;;5014182;28;20021;-73
2022/08/06 04:58:43;;;;;;;26.10;12.98;;;30.20;69.00;;;;;;5014418;28;20029;-76
2022/08/06 05:01:09;;;;;;;19.40;10.80;;;30.00;69.80;;;;;;5013625;28;20033;-77
2022/08/06 05:03:35;;;;;;;24.30;11.32;;;29.90;69.00;;;;;;5006061;28;20080;-74
2022/08/06 05:06:08;;;;;;;23.67;10.13;;;30.10;69.20;;;;;;5010627;28;20069;-77
2022/08/06 05:08:39;;;;;;;22.85;10.60;;;29.80;68.80;;;;;;5014015;28;20018;-76
2022/08/06 05:11:14;;;;;;;19.75;10.68;;;;;;;;;;5011452;28;20046;-74
2022/08/06 05:13:43;;;;;;;31.80;10.88;;;;;;;;;;5012010;28;20034;-75
2022/08/06 05:16:12;;;;;;;19.25;9.52;;;;;;;;;;5012417;28;20021;-73
2022/08/06 05:18:46;;;;;;;22.52;8.65;;;;;;;;;;5014273;28;20033;-73
2022/08/06 05:21:19;;;;;;;20.45;9.65;;;26.00;77.80;;;;;;5014310;28;20026;-73
2022/08/06 05:23:47;;;;;;;22.65;9.88;;;25.80;80.10;;;;;;5013647;28;20383;-73
2022/08/06 05:26:14;;;;;;;22.80;9.25;;;25.40;97.30;;;;;;5014319;28;20075;-71
2022/08/06 05:28:41;;;;;;;20.40;9.07;;;25.20;81.70;;;;;;5012407;28;20419;-76
2022/08/06 05:31:07;;;;;;;15.13;9.30;;;25.50;98.30;;;;;;5014139;28;20502;-73
2022/08/06 05:33:38;;;;;;;20.35;9.05;;;25.40;96.10;;;;;;5014167;28;20042;-74
2022/08/06 05:36:06;;;;;;;17.33;8.60;;;25.70;95.60;;;;;;5013906;28;20030;-71
2022/08/06 05:38:36;;;;;;;16.23;9.00;;;25.40;95.50;;;;;;5012968;28;20049;-75
2022/08/06 05:41:07;;;;;;;28.95;9.73;;;25.70;95.70;;;;;;5013244;28;20018;-76
2022/08/06 05:43:33;;;;;;;16.13;9.10;;;25.70;95.70;;;;;;5006567;28;20092;-72
2022/08/06 05:46:04;;;;;;;19.48;9.02;;;25.80;95.90;;;;;;5013824;28;20022;-75
2022/08/06 05:48:32;;;;;;;14.80;8.00;;;25.90;95.90;;;;;;5013767;28;20034;-73
2022/08/06 05:51:05;;;;;;;13.13;8.23;;;26.20;95.50;;;;;;5013660;28;20076;-76
2022/08/06 05:53:38;;;;;;;15.55;8.88;;;26.20;95.00;;;;;;5013001;28;20083;-76
2022/08/06 05:56:12;;;;;;;17.73;7.90;;;26.40;80.50;;;;;;5013335;28;20026;-74
2022/08/06 05:58:53;;;;;;;15.65;8.75;;;26.50;80.50;;;;;;5010855;28;20041;-73
2022/08/06 06:01:21;;;;;;;16.95;8.57;;;26.70;95.60;;;;;;4993343;28;20073;-74
2022/08/06 06:03:47;;;;;;;27.48;9.02;;;26.60;80.20;;;;;;5011667;28;20022;-68
2022/08/06 06:06:14;;;;;;;21.85;8.55;;;26.80;79.90;;;;;;5013277;28;20026;-76
2022/08/06 06:08:41;;;;;;;24.23;9.00;;;27.00;79.10;;;;;;5012900;28;20018;-74
2022/08/06 06:11:08;;;;;;;12.68;7.47;;;27.30;77.30;;;;;;5010680;28;20407;-75
2022/08/06 06:13:34;;;;;;;16.40;7.97;;;27.30;77.60;;;;;;5012911;28;20495;-73
2022/08/06 06:16:09;;;;;;;15.75;7.53;;;27.30;77.70;;;;;;5008851;28;20073;-74
2022/08/06 06:19:02;;;;;;;17.20;8.45;;;27.40;76.30;;;;;;4996613;28;20026;-73
2022/08/06 06:21:40;;;;;;;12.75;8.32;;;27.60;89.50;;;;;;5012844;28;20030;-74
2022/08/06 06:24:18;;;;;;;11.13;6.53;;;27.80;79.50;;;;;;5013220;28;20034;-71
2022/08/06 06:26:54;;;;;;;15.18;6.53;;;27.90;74.70;;;;;;5012341;28;20026;-75
2022/08/06 06:29:34;;;;;;;14.18;7.05;;;27.90;73.10;;;;;;5011864;28;20026;-77
2022/08/06 06:32:12;;;;;;;16.70;6.97;;;28.10;84.00;;;;;;5010426;28;20038;-75
2022/08/06 06:35:05;;;;;;;17.98;6.90;;;28.30;91.90;;;;;;5011997;28;20073;-78
2022/08/06 06:37:47;;;;;;;13.35;6.63;;;28.20;92.50;;;;;;5010860;28;20022;-78
2022/08/06 06:40:25;;;;;;;15.60;6.45;;;28.50;91.00;;;;;;5009382;28;20045;-80
2022/08/06 06:42:51;;;;;;;14.52;7.57;;;;;;;;;;4994177;28;20031;-79
2022/08/06 06:45:24;;;;;;;14.80;7.40;;;29.00;72.10;;;;;;4992791;28;20104;-81
2022/08/06 06:47:56;;;;;;;18.52;7.38;;;;;;;;;;4994922;28;20027;-76
2022/08/06 06:50:25;;;;;;;;;;;29.30;69.90;;;;;;5011620;28;20034;-79
2022/08/06 06:52:53;;;;;;;16.33;6.53;;;29.30;68.90;;;;;;5012271;28;19972;-78
2022/08/06 06:55:32;;;;;;;11.13;5.90;;;29.40;69.90;;;;;;5012358;28;20097;-77
2022/08/06 06:58:11;;;;;;;12.25;5.80;;;29.80;86.20;;;;;;5012127;28;20045;-77
2022/08/06 07:00:38;;;;;;;10.18;5.45;;;;;;;;;;5010656;28;20030;-79
2022/08/06 07:03:05;;;;;;;9.02;6.22;;;30.10;90.30;;;;;;5012383;28;20022;-79
2022/08/06 07:05:34;;;;;;;16.40;6.30;;;30.40;67.60;;;;;;5003546;28;20106;-77
2022/08/06 07:08:02;;;;;;;10.82;5.90;;;30.40;66.00;;;;;;4992489;28;20034;-77
2022/08/06 07:10:30;;;;;;;13.52;5.88;;;30.40;66.00;;;;;;5001997;28;20129;-74
2022/08/06 07:12:57;;;;;;;10.40;5.38;;;30.60;67.40;;;;;;5003682;28;20494;-75
2022/08/06 07:15:24;;;;;;;10.50;5.97;;;30.50;65.00;;;;;;5012743;28;20040;-75
2022/08/06 07:17:52;;;;;;;15.35;6.25;;;;;;;;;;5012476;28;20480;-75
2022/08/06 07:20:25;;;;;;;7.25;5.30;;;31.00;76.10;;;;;;5011558;28;20022;-71
2022/08/06 07:22:52;;;;;;;17.83;5.60;;;31.00;64.20;;;;;;5012299;28;20421;-76
2022/08/06 07:25:19;;;;;;;11.05;5.47;;;31.40;64.30;;;;;;5011887;28;20026;-72
2022/08/06 07:27:47;;;;;;;12.75;5.55;;;;;;;;;;5012258;28;20029;-73
2022/08/06 07:30:15;;;;;;;12.25;5.90;;;31.80;91.50;;;;;;5009292;28;20072;-74
2022/08/06 07:32:43;;;;;;;9.50;5.43;;;31.60;63.10;;;;;;5007599;28;20062;-75
2022/08/06 07:35:10;;;;;;;11.88;6.10;;;31.80;62.50;;;;;;5009077;28;20038;-76
2022/08/06 07:37:48;;;;;;;10.50;5.10;;;32.20;84.60;;;;;;4996325;28;20029;-72
2022/08/06 07:40:26;;;;;;;12.77;5.80;;;32.10;61.50;;;;;;5001171;28;20030;-68
2022/08/06 07:42:58;;;;;;;7.65;5.10;;;32.40;62.10;;;;;;5014575;28;20032;-72
2022/08/06 07:45:27;;;;;;;10.43;5.10;;;32.40;61.00;;;;;;5015137;28;20034;-75
2022/08/06 07:47:56;;;;;;;12.63;5.50;;;32.60;64.00;;;;;;5014891;28;20033;-72
2022/08/06 07:50:23;;;;;;;8.32;5.03;;;;;;;;;;4994763;28;20489;-77
2022/08/06 07:52:54;;;;;;;9.35;5.60;;;33.00;60.40;;;;;;5008718;28;20502;-68
2022/08/06 07:55:24;;;;;;;7.90;4.95;;;33.10;58.20;;;;;;5012648;28;20488;-74
2022/08/06 07:57:52;;;;;;;14.67;5.27;;;33.30;58.50;;;;;;5013754;28;20088;-67
2022/08/06 08:00:18;;;;;;;16.42;6.60;;;33.10;58.80;;;;;;5004446;28;20473;-80
2022/08/06 08:06:17;;;;;;;13.65;6.15;;;33.20;59.00;;;;;;4996763;28;20026;-67
2022/08/06 08:08:17;;;;;;;11.68;6.18;;;33.60;55.90;;;;;;5009399;28;20026;-76
2022/08/06 08:10:44;;;;;;;12.75;5.32;;;33.70;56.40;;;;;;5005910;28;20443;-76
2022/08/06 08:13:11;;;;;;;9.68;5.78;;;33.80;57.00;;;;;;5008249;28;20041;-77
2022/08/06 08:15:38;;;;;;;13.52;5.72;;;;;;;;;;5006746;28;20045;-79
2022/08/06 08:18:04;;;;;;;12.05;5.43;;;34.10;54.90;;;;;;5014911;28;20104;-76
2022/08/06 08:20:31;;;;;;;10.45;4.90;;;34.20;57.10;;;;;;5013983;28;20436;-80
2022/08/06 08:22:57;;;;;;;12.25;5.47;;;34.10;54.90;;;;;;5002557;28;20030;-82
2022/08/06 08:25:23;;;;;;;14.07;6.05;;;34.20;57.00;;;;;;5014020;28;20038;-77
2022/08/06 08:27:51;;;;;;;15.93;5.43;;;;;;;;;;5015259;28;20041;-77
2022/08/06 08:30:18;;;;;;;8.85;5.70;;;34.30;57.00;;;;;;5014151;28;20022;-77
2022/08/06 08:32:44;;;;;;;9.75;5.10;;;34.50;53.70;;;;;;5014961;28;20030;-77
2022/08/06 08:35:11;;;;;;;8.30;4.57;;;34.50;54.30;;;;;;5014837;28;20026;-77
2022/08/06 08:37:37;;;;;;;11.50;5.28;;;34.60;54.40;;;;;;5011478;28;20092;-77
2022/08/06 08:40:03;;;;;;;7.47;4.28;;;34.50;54.60;;;;;;5014793;28;20022;-78
2022/08/06 08:42:55;;;;;;;9.38;4.25;;;34.60;53.10;;;;;;5014637;28;20391;-77
2022/08/06 08:45:22;;;;;;;5.75;3.63;;;;;;;;;;5013948;28;20435;-77
2022/08/06 08:47:53;;;;;;;7.05;4.00;;;34.80;49.80;;;;;;5009427;28;20076;-71
2022/08/06 08:50:25;;;;;;;9.77;3.50;;;34.80;51.40;;;;;;4996963;28;20085;-77
2022/08/06 08:52:55;;;;;;;8.13;4.25;;;34.80;51.70;;;;;;4999817;28;20033;-75
2022/08/06 08:55:24;;;;;;;6.27;4.07;;;34.70;52.50;;;;;;5011044;28;20077;-67
2022/08/06 08:57:52;;;;;;;5.80;3.38;;;34.70;51.70;;;;;;5004836;28;20026;-74
2022/08/06 09:00:19;;;;;;;7.43;3.53;;;;;;;;;;4994289;28;20096;-77
2022/08/06 09:02:45;;;;;;;5.38;3.78;;;;;;;;;;4994185;28;20030;-73
2022/08/06 09:05:12;;;;;;;6.15;4.88;;;35.30;50.80;;;;;;4994869;28;20029;-76
2022/08/06 09:07:39;;;;;;;4.47;2.45;;;35.20;53.60;;;;;;5012523;28;20051;-68
2022/08/06 09:10:07;;;;;;;7.72;3.70;;;35.40;55.40;;;;;;5013794;28;20026;-78
2022/08/06 09:12:33;;;;;;;4.07;2.80;;;35.30;54.10;;;;;;5012471;28;20029;-76
2022/08/06 09:14:59;;;;;;;6.80;3.38;;;35.20;54.70;;;;;;5012092;28;20644;-77
2022/08/06 09:17:27;;;;;;;4.40;2.50;;;;;;;;;;5009965;28;20491;-70
2022/08/06 09:19:53;;;;;;;8.02;3.20;;;35.30;63.30;;;;;;5000023;28;20019;-78
2022/08/06 09:22:19;;;;;;;4.32;3.00;;;;;;;;;;5008460;28;20092;-74
2022/08/06 09:24:45;;;;;;;4.30;2.45;;;35.60;73.00;;;;;;5009558;28;20036;-77
2022/08/06 09:27:15;;;;;;;3.90;2.40;;;35.40;72.40;;;;;;5013347;28;20018;-77
2022/08/06 09:29:56;;;;;;;3.77;2.70;;;;;;;;;;5021425;28;20372;-63
2022/08/06 09:32:43;;;;;;;5.30;2.40;;;;;;;;;;5018330;28;20030;-75
2022/08/06 09:35:19;;;;;;;4.22;2.40;;;;;;;;;;5011580;28;20506;-70
2022/08/06 09:37:45;;;;;;;4.65;2.55;;;;;;;;;;5013449;28;20197;-77
2022/08/06 09:40:12;;;;;;;4.53;3.15;;;;;;;;;;5011394;28;20040;-70
2022/08/06 09:42:39;;;;;;;5.40;3.10;;;;;;;;;;5003400;28;20064;-72
2022/08/06 09:45:06;;;;;;;6.38;3.38;;;;;;;;;;5013283;28;20492;-77
2022/08/06 09:47:32;;;;;;;7.70;3.20;;;;;;;;;;5007409;28;20030;-75
2022/08/06 09:49:58;;;;;;;7.18;4.00;;;;;;;;;;5011098;28;20033;-72
2022/08/06 09:52:26;;;;;;;6.65;3.72;;;;;;;;;;5015817;28;20042;-74
2022/08/06 09:54:52;;;;;;;4.95;3.17;;;;;;;;;;5010544;28;20025;-73
2022/08/06 09:57:18;;;;;;;9.90;4.30;;;;;;;;;;5012350;28;20104;-72
2022/08/06 09:59:45;;;;;;;6.50;3.95;;;;;;;;;;5009749;28;20022;-75
2022/08/06 10:02:15;;;;;;;5.20;3.35;;;;;;;;;;5007872;28;20026;-76
2022/08/06 10:04:42;;;;;;;6.55;3.13;;;;;;;;;;5012865;28;20076;-73
2022/08/06 10:07:08;;;;;;;10.82;3.17;;;;;;;;;;5013111;28;20030;-76
2022/08/06 10:09:37;;;;;;;6.78;3.90;;;;;;;;;;5013173;28;20018;-77
2022/08/06 10:12:16;;;;;;;6.25;3.60;;;;;;;;;;5012720;28;20105;-75
2022/08/06 10:14:43;;;;;;;7.50;3.78;;;;;;;;;;5012843;28;20036;-73
2022/08/06 10:17:17;;;;;;;4.85;3.45;;;;;;;;;;5013205;28;20108;-71
2022/08/06 10:19:45;;;;;;;8.65;3.80;;;;;;;;;;5000963;28;20105;-75
2022/08/06 10:22:12;;;;;;;9.32;3.63;;;;;;;;;;4993110;28;20053;-73
2022/08/06 10:24:51;;;;;;;5.13;3.13;;;;;;;;;;4993074;28;20058;-72
2022/08/06 10:27:20;;;;;;;7.82;3.38;;;;;;;;;;4993462;28;20421;-74
2022/08/06 10:29:51;;;;;;;16.88;4.18;;;;;;;;;;5014116;28;20029;-75
2022/08/06 10:32:20;;;;;;;6.80;3.45;;;;;;;;;;5012485;28;20038;-76
2022/08/06 10:34:49;;;;;;;6.38;3.83;;;36.10;61.30;;;;;;5014789;28;20053;-76
2022/08/06 10:37:18;;;;;;;6.35;3.58;;;36.00;62.30;;;;;;5012743;28;20097;-76
2022/08/06 10:39:46;;;;;;;6.10;3.20;;;;;;;;;;5008389;28;20030;-76
2022/08/06 10:42:13;;;;;;;8.32;3.58;;;;;;;;;;5010290;28;20034;-74
2022/08/06 10:44:41;;;;;;;20.33;3.65;;;35.00;47.50;;;;;;5010287;28;20041;-74
2022/08/06 10:47:07;;;;;;;5.57;3.17;;;35.20;49.40;;;;;;5007846;28;20160;-71
2022/08/06 10:49:33;;;;;;;10.88;3.75;;;35.60;48.70;;;;;;5008712;28;20034;-73
2022/08/06 10:52:00;;;;;;;5.25;3.20;;;36.00;59.00;;;;;;5010724;28;20042;-75
2022/08/06 10:54:27;;;;;;;4.47;3.03;;;35.70;47.60;;;;;;5004761;28;20034;-69
2022/08/06 10:56:54;;;;;;;5.90;3.35;;;35.60;47.90;;;;;;5005836;28;20060;-75
2022/08/06 10:59:20;;;;;;;5.03;3.20;;;35.60;49.40;;;;;;5006393;28;20109;-76
2022/08/06 11:01:55;;;;;;;4.75;3.58;;;35.70;48.90;;;;;;5008825;28;20105;-71
2022/08/06 11:04:23;;;;;;;4.32;3.13;;;35.60;47.30;;;;;;5007102;28;20361;-78
2022/08/06 11:07:04;;;;;;;3.78;2.75;;;35.60;48.10;;;;;;5000728;28;20093;-78
2022/08/06 11:09:36;;;;;;;4.82;2.92;;;;;;;;;;5014265;28;20033;-76
2022/08/06 11:12:46;;;;;;;6.97;3.53;;;35.90;47.20;;;;;;5009483;28;20038;-75
2022/08/06 11:15:12;;;;;;;6.25;3.80;;;;;;;;;;4993988;28;20041;-73
2022/08/06 11:17:46;;;;;;;4.00;2.97;;;;;;;;;;4994566;28;20557;-70
2022/08/06 11:20:33;;;;;;;7.18;4.07;;;36.30;48.00;;;;;;4993123;28;20042;-77
2022/08/06 11:23:00;;;;;;;6.60;3.78;;;36.20;47.20;;;;;;4994203;28;20069;-73
2022/08/06 11:25:43;;;;;;;4.70;3.58;;;36.10;47.00;;;;;;5000114;28;20044;-77
2022/08/06 11:28:11;;;;;;;4.47;3.20;;;36.10;46.60;;;;;;5000841;28;20041;-69
2022/08/06 11:30:41;;;;;;;4.85;3.38;;;35.90;47.90;;;;;;4992909;28;20018;-73
2022/08/06 11:33:08;;;;;;;6.55;3.97;;;35.90;48.30;;;;;;4995641;28;20054;-68
2022/08/06 11:35:34;;;;;;;8.48;3.92;;;35.30;47.70;;;;;;4993491;28;20026;-75
2022/08/06 11:38:07;;;;;;;7.93;3.38;;;35.30;49.10;;;;;;4993243;28;20097;-79
2022/08/06 11:40:59;;;;;;;5.63;3.53;;;35.30;47.90;;;;;;4993420;28;20066;-75
2022/08/06 11:43:47;;;;;;;6.43;3.67;;;35.50;48.10;;;;;;4993935;28;20053;-77
2022/08/06 11:46:25;;;;;;;6.43;3.17;;;35.80;49.00;;;;;;5007205;28;20049;-74
2022/08/06 11:49:02;;;;;;;8.35;3.45;;;35.90;48.00;;;;;;5015543;28;20017;-69
2022/08/06 11:51:56;;;;;;;4.88;3.13;;;36.10;48.10;;;;;;5016367;28;20034;-76
2022/08/06 11:54:28;;;;;;;8.88;3.15;;;36.40;46.90;;;;;;5003089;28;20384;-68
2022/08/06 11:57:08;;;;;;;4.40;2.92;;;36.30;45.20;;;;;;5015635;28;20026;-63
2022/08/06 11:59:49;;;;;;;7.22;2.85;;;36.10;46.10;;;;;;5013732;28;20069;-76
2022/08/06 12:02:49;;;;;;;3.63;2.85;;;36.00;46.00;;;;;;5013434;28;20026;-75
2022/08/06 12:05:15;;;;;;;4.72;3.08;;;36.10;45.90;;;;;;5013318;28;20064;-79
2022/08/06 12:07:44;;;;;;;6.30;3.03;;;36.30;46.40;;;;;;5015782;28;20403;-77
2022/08/06 12:10:12;;;;;;;6.00;3.67;;;36.00;46.10;;;;;;5013602;28;20038;-72
2022/08/06 12:12:42;;;;;;;6.38;2.92;;;35.70;45.60;;;;;;5009271;28;20034;-78
2022/08/06 12:15:15;;;;;;;13.23;3.80;;;35.70;46.60;;;;;;5009725;28;20575;-77
2022/08/06 12:18:00;;;;;;;7.43;3.45;;;36.10;47.30;;;;;;5006825;28;20368;-74
2022/08/06 12:20:37;;;;;;;5.50;3.08;;;36.10;46.10;;;;;;5014258;28;20058;-78
2022/08/06 12:23:11;;;;;;;6.60;3.28;;;36.10;46.10;;;;;;5015272;28;20030;-80
2022/08/06 12:25:45;;;;;;;6.18;2.33;;;36.40;47.00;;;;;;5012739;28;20106;-81
2022/08/06 12:28:20;;;;;;;3.58;2.72;;;36.40;46.60;;;;;;5002168;28;20357;-80
2022/08/06 12:30:48;;;;;;;6.15;2.88;;;36.50;47.90;;;;;;5015241;28;20473;-79
2022/08/06 12:33:15;;;;;;;4.97;3.05;;;36.50;49.70;;;;;;5015123;28;20542;-79
2022/08/06 12:36:00;;;;;;;5.95;3.20;;;36.20;46.20;;;;;;5015172;28;20056;-80
2022/08/06 12:38:31;;;;;;;5.25;3.13;;;36.20;52.40;;;;;;5013804;28;20042;-80
2022/08/06 12:41:02;;;;;;;4.00;3.13;;;36.30;52.00;;;;;;5014581;28;20022;-80
2022/08/06 12:43:30;;;;;;;4.07;2.90;;;36.20;53.00;;;;;;5014832;28;20045;-80
2022/08/06 12:46:01;;;;;;;7.13;3.38;;;36.40;52.80;;;;;;5001420;28;20030;-77
2022/08/06 12:48:27;;;;;;;5.38;3.45;;;36.30;52.20;;;;;;5015205;28;20041;-76
2022/08/06 12:51:06;;;;;;;4.80;2.95;;;36.10;51.20;;;;;;5014886;28;20018;-78
2022/08/06 12:53:36;;;;;;;5.88;3.78;;;36.30;53.30;;;;;;5014859;28;20039;-79
2022/08/06 12:56:03;;;;;;;7.90;3.92;;;36.30;56.00;;;;;;5009381;28;20033;-80
2022/08/06 12:58:32;;;;;;;5.50;3.33;;;36.30;55.90;;;;;;5014143;28;20391;-80
2022/08/06 13:01:00;;;;;;;5.88;3.60;;;36.30;55.20;;;;;;5012868;28;20030;-80
2022/08/06 13:03:26;;;;;;;5.18;3.45;;;36.30;55.10;;;;;;5020631;28;20018;-79
2022/08/06 13:05:59;;;;;;;12.82;3.72;;;36.30;54.80;;;;;;5012027;28;20109;-80
2022/08/06 13:08:26;;;;;;;4.07;2.92;;;36.30;53.80;;;;;;5013166;28;20026;-78
2022/08/06 13:10:54;;;;;;;4.30;2.83;;;36.40;54.30;;;;;;5015538;28;20022;-76
2022/08/06 13:13:20;;;;;;;4.03;3.03;;;36.30;54.40;;;;;;5013860;28;20061;-77
2022/08/06 13:16:04;;;;;;;9.07;3.60;;;36.40;54.50;;;;;;5013767;28;20026;-76
2022/08/06 13:18:30;;;;;;;4.93;2.95;;;36.30;55.50;;;;;;5012896;28;20038;-78